Time;durP1;ratioP1;P1;durP2;ratioP2;P2;SDS_P1;SDS_P2;PMS_P1;PMS_P2;Temp;Humidity;BMP_temperature;BMP_pressure;BME280_temperature;BME280_humidity;BME280_pressure;Samples;Min_cycle;Max_cycle;Signal;HPM_P1;HPM_P2
2021/06/20 00:01:28;;;;;;;14.90;9.30;;;;;;;21.12;80.96;98642.75;5031290;28;20034;-68
2021/06/20 00:03:53;;;;;;;14.05;8.23;;;;;;;21.16;80.33;98646.75;5030978;28;20493;-66
2021/06/20 00:06:32;;;;;;;16.50;10.30;;;;;;;21.10;81.14;98650.94;5030353;28;20038;-67
2021/06/20 00:08:59;;;;;;;14.82;9.35;;;;;;;21.05;80.79;98653.31;5030811;28;20041;-67
2021/06/20 00:11:27;;;;;;;12.18;8.93;;;;;;;21.05;80.41;98669.38;5031197;28;20033;-68
2021/06/20 00:13:52;;;;;;;9.88;7.85;;;;;;;21.00;80.17;98677.09;5030288;28;20030;-68
2021/06/20 00:16:18;;;;;;;12.93;8.43;;;;;;;21.00;80.08;98677.94;5030633;28;20029;-70
2021/06/20 00:18:44;;;;;;;11.88;7.90;;;;;;;20.99;79.96;98675.41;5030555;28;20099;-66
2021/06/20 00:21:10;;;;;;;14.93;7.90;;;;;;;20.97;79.94;98672.91;5030215;28;20029;-66
2021/06/20 00:23:35;;;;;;;13.82;8.60;;;;;;;20.99;79.57;98656.66;5029852;28;20136;-67
2021/06/20 00:26:01;;;;;;;14.20;9.15;;;;;;;20.98;80.19;98663.03;5030288;28;20479;-66
2021/06/20 00:28:26;;;;;;;12.05;7.40;;;;;;;20.97;80.52;98661.38;5030480;28;20458;-66
2021/06/20 00:30:52;;;;;;;13.05;7.65;;;;;;;20.97;80.53;98664.88;5030106;28;20030;-66
2021/06/20 00:33:18;;;;;;;12.05;7.38;;;;;;;20.98;80.67;98663.03;5030103;28;20091;-67
2021/06/20 00:35:43;;;;;;;17.73;10.55;;;;;;;20.98;80.78;98663.03;5030111;28;20103;-68
2021/06/20 00:38:08;;;;;;;12.68;9.85;;;;;;;20.98;81.10;98658.50;5027888;28;20053;-67
2021/06/20 00:40:34;;;;;;;9.98;8.48;;;;;;;20.99;81.42;98665.56;5030142;28;20056;-66
2021/06/20 00:42:59;;;;;;;9.20;6.72;;;;;;;21.00;81.46;98658.34;5030058;28;20435;-68
2021/06/20 00:45:24;;;;;;;12.95;8.77;;;;;;;21.00;80.65;98658.34;5030233;28;20045;-66
2021/06/20 00:47:55;;;;;;;11.60;10.40;;;;;;;21.00;81.01;98655.66;5029861;28;20104;-66
2021/06/20 00:50:20;;;;;;;16.50;10.20;;;;;;;20.98;80.92;98652.31;5029808;28;20029;-66
2021/06/20 00:52:46;;;;;;;6.95;5.78;;;;;;;21.00;80.93;98661.84;5029591;28;20041;-67
2021/06/20 00:55:12;;;;;;;14.45;10.52;;;;;;;20.96;81.18;98660.50;5029787;28;20428;-68
2021/06/20 00:57:38;;;;;;;11.57;10.02;;;;;;;20.96;81.46;98673.06;5029500;28;20037;-69
2021/06/20 01:00:06;;;;;;;16.05;9.70;;;;;;;20.97;81.27;98674.78;5029890;28;20034;-66
2021/06/20 01:02:31;;;;;;;13.20;8.98;;;;;;;20.98;81.08;98666.53;4979721;28;20124;-66
2021/06/20 01:04:56;;;;;;;11.75;10.35;;;;;;;20.93;81.20;98657.34;5028904;28;20117;-66
2021/06/20 01:07:23;;;;;;;16.95;10.57;;;;;;;20.92;81.72;98651.16;5028781;28;20049;-69
2021/06/20 01:09:50;;;;;;;16.75;9.63;;;;;;;20.92;81.69;98650.28;5029683;28;20041;-66
2021/06/20 01:12:17;;;;;;;12.05;7.30;;;;;;;20.91;80.82;98648.63;5029386;28;20053;-66
2021/06/20 01:14:43;;;;;;;12.48;8.32;;;;;;;20.90;81.12;98638.94;5029296;28;20087;-68
2021/06/20 01:17:09;;;;;;;14.98;7.65;;;;;;;20.91;80.72;98635.25;5029256;28;20516;-67
2021/06/20 01:19:35;;;;;;;9.55;5.80;;;;;;;20.95;81.03;98652.66;5029314;28;20029;-67
2021/06/20 01:22:25;;;;;;;12.00;7.90;;;;;;;20.98;81.63;98655.00;5029440;28;20033;-68
2021/06/20 01:24:56;;;;;;;12.02;8.50;;;;;;;21.00;81.92;98667.22;5014240;28;20113;-69
2021/06/20 01:27:40;;;;;;;9.20;7.30;;;;;;;21.06;81.27;98670.22;5009627;28;20033;-66
2021/06/20 01:30:09;;;;;;;10.02;7.22;;;;;;;21.06;81.13;98675.56;5009765;28;20033;-66
2021/06/20 01:32:35;;;;;;;13.40;10.13;;;;;;;21.07;81.77;98662.03;5006369;28;20025;-67
2021/06/20 01:35:00;;;;;;;15.45;8.68;;;;;;;21.10;82.02;98667.03;5009800;28;20041;-65
2021/06/20 01:37:27;;;;;;;11.45;9.07;;;;;;;21.08;81.00;98661.00;5008974;28;20073;-66
2021/06/20 01:39:52;;;;;;;12.52;9.48;;;;;;;21.05;80.83;98664.03;5010079;28;20404;-66
2021/06/20 01:42:18;;;;;;;14.38;9.13;;;;;;;21.01;82.03;98650.13;5009407;28;20022;-65
2021/06/20 01:44:57;;;;;;;15.23;7.72;;;;;;;20.99;81.50;98687.00;5009855;28;20042;-68
2021/06/20 01:47:23;;;;;;;11.93;8.25;;;;;;;20.94;81.22;98734.03;4997474;28;20428;-66
2021/06/20 01:49:50;;;;;;;12.45;8.10;;;;;;;20.91;80.79;98747.78;5008635;28;20034;-67
2021/06/20 01:52:20;;;;;;;10.88;6.20;;;;;;;20.86;79.56;98763.50;5009646;28;20034;-67
2021/06/20 01:54:52;;;;;;;9.45;6.60;;;;;;;20.84;78.74;98769.03;5009725;28;20109;-69
2021/06/20 01:57:24;;;;;;;7.18;4.57;;;;;;;20.80;77.10;98751.63;5009425;28;20437;-67
2021/06/20 01:59:51;;;;;;;8.05;4.25;;;;;;;20.74;76.81;98771.84;4998128;28;20065;-68
2021/06/20 02:02:17;;;;;;;8.45;4.53;;;;;;;20.68;76.63;98772.53;5010398;28;20034;-66
2021/06/20 02:04:43;;;;;;;9.65;5.05;;;;;;;20.61;76.33;98773.34;5012876;28;20056;-66
2021/06/20 02:07:09;;;;;;;7.28;3.42;;;;;;;20.51;76.49;98782.34;5010523;28;20105;-67
2021/06/20 02:09:36;;;;;;;20.95;6.13;;;;;;;20.48;76.84;98796.06;5010606;28;20113;-67
2021/06/20 02:12:03;;;;;;;5.97;3.03;;;;;;;20.41;76.76;98803.06;5009750;28;20761;-66
2021/06/20 02:14:28;;;;;;;5.65;3.10;;;;;;;20.33;77.31;98819.06;5009693;28;20038;-67
2021/06/20 02:16:54;;;;;;;7.75;3.45;;;;;;;20.25;77.01;98817.22;5010038;28;20037;-68
2021/06/20 02:19:19;;;;;;;7.85;3.25;;;;;;;20.24;77.42;98826.25;5013501;28;20464;-66
2021/06/20 02:21:44;;;;;;;13.63;3.30;;;;;;;20.20;76.57;98832.09;5013488;28;20030;-66
2021/06/20 02:24:10;;;;;;;5.47;3.05;;;;;;;20.16;77.12;98828.91;5013873;28;20038;-66
2021/06/20 02:26:35;;;;;;;6.15;2.58;;;;;;;20.09;76.92;98838.56;5015285;28;20571;-66
2021/06/20 02:29:00;;;;;;;9.23;3.22;;;;;;;20.08;76.86;98831.53;5014716;28;20069;-67
2021/06/20 02:31:26;;;;;;;4.70;2.58;;;;;;;20.09;77.10;98843.91;5011785;28;20053;-66
2021/06/20 02:33:51;;;;;;;4.90;2.80;;;;;;;20.05;77.05;98840.69;5013936;28;20060;-66
2021/06/20 02:36:17;;;;;;;6.10;3.40;;;;;;;20.05;76.61;98838.03;5014490;28;20497;-67
2021/06/20 02:38:42;;;;;;;5.15;2.85;;;;;;;20.01;76.91;98849.22;5015158;28;20044;-66
2021/06/20 02:41:08;;;;;;;4.97;2.80;;;;;;;20.01;76.73;98850.06;5013300;28;20440;-67
2021/06/20 02:43:33;;;;;;;5.88;2.80;;;;;;;20.00;76.32;98850.22;5012886;28;20030;-67
2021/06/20 02:45:58;;;;;;;5.28;2.88;;;;;;;19.97;76.39;98856.72;5011394;28;20084;-68
2021/06/20 02:48:24;;;;;;;5.60;2.30;;;;;;;19.94;75.90;98852.53;5012565;28;20038;-65
2021/06/20 02:50:49;;;;;;;4.60;2.60;;;;;;;19.96;76.50;98852.38;5013051;28;20054;-65
2021/06/20 02:53:15;;;;;;;5.20;2.60;;;;;;;19.96;76.31;98855.06;5012577;28;20109;-66
2021/06/20 02:55:40;;;;;;;7.63;3.00;;;;;;;19.95;75.79;98843.50;5012087;28;20095;-66
2021/06/20 02:58:05;;;;;;;5.40;3.00;;;;;;;19.97;75.82;98847.88;5012160;28;20460;-66
2021/06/20 03:00:31;;;;;;;5.43;2.55;;;;;;;19.95;76.03;98843.50;5012340;28;20034;-65
2021/06/20 03:02:56;;;;;;;7.07;2.90;;;;;;;19.94;75.93;98849.84;5012177;28;20287;-65
2021/06/20 03:05:21;;;;;;;6.03;2.78;;;;;;;19.92;75.65;98843.81;5012368;28;20060;-66
2021/06/20 03:07:47;;;;;;;5.55;2.35;;;;;;;19.92;75.41;98838.47;5012061;28;20717;-66
2021/06/20 03:10:12;;;;;;;5.18;2.42;;;;;;;19.90;75.28;98845.81;5011622;28;20490;-66
2021/06/20 03:12:38;;;;;;;6.40;3.00;;;;;;;19.88;75.17;98839.78;5011991;28;20030;-67
2021/06/20 03:15:05;;;;;;;9.18;2.92;;;;;;;19.84;74.92;98835.75;5011895;28;20480;-67
2021/06/20 03:17:30;;;;;;;6.03;2.33;;;;;;;19.80;74.68;98839.72;5011695;28;20061;-67
2021/06/20 03:19:55;;;;;;;5.30;2.92;;;;;;;19.78;75.18;98840.88;5010480;28;20439;-67
2021/06/20 03:22:21;;;;;;;10.77;3.47;;;;;;;19.75;75.18;98846.56;5012252;28;20038;-66
2021/06/20 03:24:48;;;;;;;4.90;2.10;;;;;;;19.71;74.70;98857.56;5011598;28;20117;-67
2021/06/20 03:27:15;;;;;;;5.38;2.90;;;;;;;19.69;74.84;98858.69;5011545;28;20029;-66
2021/06/20 03:29:41;;;;;;;8.75;3.10;;;;;;;19.69;74.96;98859.56;5010942;28;20117;-65
2021/06/20 03:32:07;;;;;;;4.43;2.30;;;;;;;19.71;74.57;98862.06;5011601;28;20041;-66
2021/06/20 03:34:33;;;;;;;6.07;2.30;;;;;;;19.73;74.56;98870.78;5007078;28;20030;-66
2021/06/20 03:36:59;;;;;;;7.00;3.63;;;;;;;19.69;74.50;98869.41;5011227;28;20405;-67
2021/06/20 03:39:25;;;;;;;6.20;3.10;;;;;;;19.70;74.45;98871.09;5010859;28;20547;-67
2021/06/20 03:41:50;;;;;;;5.35;2.90;;;;;;;19.72;74.56;98880.63;5008865;28;20037;-67
2021/06/20 03:44:15;;;;;;;5.00;2.13;;;;;;;19.72;74.14;98885.16;5011218;28;20029;-66
2021/06/20 03:46:41;;;;;;;7.72;3.55;;;;;;;19.73;74.57;98887.66;5011165;28;20034;-67
2021/06/20 03:49:06;;;;;;;9.02;2.90;;;;;;;19.71;73.81;98891.47;5011098;28;20117;-68
2021/06/20 03:51:32;;;;;;;5.88;3.00;;;;;;;19.72;73.85;98888.66;5011264;28;20026;-66
2021/06/20 03:53:57;;;;;;;6.43;2.90;;;;;;;19.73;73.96;98900.19;5009519;28;20037;-64
2021/06/20 03:56:23;;;;;;;3.33;2.42;;;;;;;19.72;73.72;98891.34;5011276;28;20056;-66
2021/06/20 03:58:48;;;;;;;3.85;2.60;;;;;;;19.70;73.13;98906.69;5011072;28;20048;-68
2021/06/20 04:01:14;;;;;;;6.50;3.17;;;;;;;19.67;72.18;98892.78;5011118;28;20038;-65
2021/06/20 04:03:39;;;;;;;6.72;2.80;;;;;;;19.71;71.83;98899.50;5011213;28;20108;-66
2021/06/20 04:06:04;;;;;;;4.65;3.13;;;;;;;19.73;71.83;98897.53;5011113;28;20029;-67
2021/06/20 04:08:30;;;;;;;4.57;2.78;;;;;;;19.77;72.03;98898.91;5010368;28;20061;-66
2021/06/20 04:10:55;;;;;;;6.32;2.75;;;;;;;19.77;71.93;98904.25;5010685;28;20072;-66
2021/06/20 04:13:21;;;;;;;4.22;2.78;;;;;;;19.76;72.08;98910.56;5011289;28;20054;-65
2021/06/20 04:15:46;;;;;;;4.47;2.88;;;;;;;19.79;72.24;98917.44;5010592;28;20038;-65
2021/06/20 04:18:11;;;;;;;5.55;3.75;;;;;;;19.80;71.90;98917.28;5010578;28;20489;-66
2021/06/20 04:20:37;;;;;;;3.42;2.30;;;;;;;19.81;71.80;98913.63;5009513;28;20725;-68
2021/06/20 04:23:03;;;;;;;4.88;2.53;;;;;;;19.81;71.88;98916.28;5010885;28;20054;-66
2021/06/20 04:25:28;;;;;;;5.95;2.65;;;;;;;19.79;71.99;98912.09;5010613;28;20369;-66
2021/06/20 04:27:53;;;;;;;6.07;2.80;;;;;;;19.78;71.76;98911.25;5011041;28;20065;-66
2021/06/20 04:30:22;;;;;;;8.75;2.95;;;;;;;19.83;72.25;98916.97;5010553;28;20114;-66
2021/06/20 04:32:47;;;;;;;8.48;3.30;;;;;;;19.79;71.79;98906.75;5010664;28;20088;-66
2021/06/20 04:35:14;;;;;;;5.80;3.55;;;;;;;19.75;71.75;98908.91;5010666;28;20034;-66
2021/06/20 04:37:40;;;;;;;3.63;2.30;;;;;;;19.75;71.87;98919.59;5009976;28;20491;-68
2021/06/20 04:40:09;;;;;;;9.18;3.50;;;;;;;19.74;71.66;98912.59;5009902;28;20117;-66
2021/06/20 04:42:39;;;;;;;3.88;2.45;;;;;;;19.75;71.88;98919.59;5010585;28;20077;-65
2021/06/20 04:45:06;;;;;;;4.85;3.78;;;;;;;19.78;71.62;98921.97;5010476;28;20030;-66
2021/06/20 04:47:32;;;;;;;9.02;3.55;;;;;;;19.83;71.58;98919.66;5010060;28;20030;-66
2021/06/20 04:49:58;;;;;;;3.65;2.60;;;;;;;19.82;70.85;98919.81;5008972;28;20037;-68
2021/06/20 04:52:24;;;;;;;5.85;3.00;;;;;;;19.81;71.01;98927.00;5010680;28;20076;-67
2021/06/20 04:54:50;;;;;;;3.92;2.03;;;;;;;19.82;70.87;98928.69;5010131;28;20451;-66
2021/06/20 04:57:18;;;;;;;4.38;2.70;;;;;;;19.81;71.02;98924.31;5009699;28;20053;-66
2021/06/20 04:59:43;;;;;;;5.68;3.58;;;;;;;19.85;70.73;98932.88;5009873;28;20029;-66
2021/06/20 05:02:09;;;;;;;5.30;2.50;;;;;;;19.86;70.51;98930.06;5008902;28;20045;-66
2021/06/20 05:04:34;;;;;;;5.88;2.50;;;;;;;19.85;70.33;98928.38;5008733;28;20460;-67
2021/06/20 05:07:01;;;;;;;7.30;3.00;;;;;;;19.84;70.15;98932.06;5009659;28;20606;-67
2021/06/20 05:09:26;;;;;;;6.43;2.92;;;;;;;19.88;70.21;98940.59;5010286;28;20040;-68
2021/06/20 05:11:51;;;;;;;4.63;2.75;;;;;;;19.93;69.91;98931.09;5010176;28;20121;-67
2021/06/20 05:14:17;;;;;;;12.02;3.38;;;;;;;20.01;69.64;98933.00;5010869;28;20121;-67
2021/06/20 05:16:42;;;;;;;5.85;3.55;;;;;;;20.12;68.99;98930.06;5009621;28;20034;-67
2021/06/20 05:19:07;;;;;;;8.18;3.97;;;;;;;20.27;68.81;98933.00;5009422;28;20378;-67
2021/06/20 05:21:33;;;;;;;5.38;2.67;;;;;;;20.37;68.62;98932.88;5009696;28;20064;-67
2021/06/20 05:23:59;;;;;;;5.43;3.03;;;;;;;20.54;67.99;98934.63;5009788;28;20061;-68
2021/06/20 05:26:24;;;;;;;3.88;2.58;;;;;;;20.72;66.98;98933.75;5009855;28;20397;-68
2021/06/20 05:28:50;;;;;;;7.35;2.83;;;;;;;20.84;66.50;98939.66;5009444;28;20078;-67
2021/06/20 05:31:15;;;;;;;3.47;2.65;;;;;;;20.96;65.97;98933.00;5009823;28;20121;-68
2021/06/20 05:33:40;;;;;;;4.55;2.63;;;;;;;21.07;65.75;98929.16;5009918;28;20386;-67
2021/06/20 05:36:06;;;;;;;8.20;3.10;;;;;;;21.20;64.95;98927.69;5009658;28;20049;-67
2021/06/20 05:38:31;;;;;;;3.88;2.38;;;;;;;21.37;64.82;98928.56;5002735;28;20058;-67
2021/06/20 05:40:59;;;;;;;5.15;2.90;;;;;;;21.67;63.79;98926.25;5010008;28;20515;-68
2021/06/20 05:43:24;;;;;;;10.75;2.70;;;;;;;22.09;62.06;98926.03;4998314;28;20061;-67
2021/06/20 05:45:49;;;;;;;4.90;2.30;;;;;;;22.25;61.14;98924.41;4990047;28;20054;-67
2021/06/20 05:48:15;;;;;;;6.00;1.95;;;;;;;22.14;60.92;98924.72;5008328;28;20057;-67
2021/06/20 05:50:40;;;;;;;4.82;2.65;;;;;;;22.33;60.32;98916.31;5009661;28;20497;-67
2021/06/20 05:53:06;;;;;;;4.05;2.30;;;;;;;22.56;59.83;98927.13;5012370;28;20604;-67
2021/06/20 05:55:31;;;;;;;4.72;2.72;;;;;;;22.83;59.04;98933.91;5013201;28;20057;-68
2021/06/20 05:57:56;;;;;;;4.50;2.40;;;;;;;23.10;58.07;98937.16;5013082;28;20045;-68
2021/06/20 06:00:22;;;;;;;3.42;2.40;;;;;;;23.07;56.93;98929.47;5013580;28;20034;-68
2021/06/20 06:02:47;;;;;;;4.13;2.45;;;;;;;23.23;57.04;98936.56;5013604;28;20048;-66
2021/06/20 06:05:13;;;;;;;10.30;2.47;;;;;;;23.06;56.91;98928.63;5013117;28;20037;-67
2021/06/20 06:07:38;;;;;;;3.13;1.80;;;;;;;23.09;56.52;98919.38;5012906;28;20037;-67
2021/06/20 06:10:05;;;;;;;4.68;2.95;;;;;;;23.12;56.52;98916.31;5011956;28;20551;-68
2021/06/20 06:12:31;;;;;;;3.72;2.45;;;;;;;23.11;56.39;98914.63;5012982;28;20487;-67
2021/06/20 06:14:56;;;;;;;3.65;2.30;;;;;;;23.19;56.37;98917.28;5014389;28;20037;-68
2021/06/20 06:17:23;;;;;;;5.10;2.25;;;;;;;23.15;55.87;98913.25;5014212;28;20160;-67
2021/06/20 06:19:50;;;;;;;4.43;2.50;;;;;;;23.29;55.26;98911.66;5014092;28;20120;-67
2021/06/20 06:22:20;;;;;;;3.72;2.30;;;;;;;23.37;55.44;98927.75;5013591;28;20486;-67
2021/06/20 06:24:47;;;;;;;3.35;2.40;;;;;;;23.18;55.25;98915.59;5013034;28;20049;-67
2021/06/20 06:27:13;;;;;;;4.60;2.00;;;;;;;23.10;55.57;98903.03;5012519;28;20484;-67
2021/06/20 06:29:39;;;;;;;3.88;2.22;;;;;;;23.11;55.23;98910.09;5012755;28;20030;-67
2021/06/20 06:32:05;;;;;;;5.07;2.20;;;;;;;22.94;55.22;98933.53;5012945;28;20025;-67
2021/06/20 06:34:32;;;;;;;6.70;2.33;;;;;;;22.99;55.42;98919.59;5012483;28;20481;-68
2021/06/20 06:36:58;;;;;;;5.72;2.05;;;;;;;22.87;55.23;98931.72;5013105;28;20037;-68
2021/06/20 06:39:23;;;;;;;5.32;2.40;;;;;;;23.11;54.36;98922.69;5013009;28;20056;-68
2021/06/20 06:41:48;;;;;;;3.65;2.60;;;;;;;23.29;53.85;98927.81;5012941;28;20048;-68
2021/06/20 06:44:14;;;;;;;2.53;1.73;;;;;;;23.31;52.67;98925.78;5013215;28;20038;-68
2021/06/20 06:46:39;;;;;;;4.00;1.90;;;;;;;23.57;52.93;98925.41;5012889;28;20029;-68
2021/06/20 06:49:04;;;;;;;2.83;1.90;;;;;;;23.89;52.11;98923.50;5013282;28;20036;-66
2021/06/20 06:51:30;;;;;;;5.05;2.08;;;;;;;24.03;51.67;98920.00;5013407;28;20030;-67
2021/06/20 06:53:55;;;;;;;4.57;2.20;;;;;;;24.14;50.57;98929.47;5012950;28;20044;-65
2021/06/20 06:56:21;;;;;;;3.80;2.00;;;;;;;24.09;51.22;98932.72;5012192;28;20070;-66
2021/06/20 06:58:46;;;;;;;3.42;1.80;;;;;;;23.91;50.45;98935.75;5010533;28;20042;-65
2021/06/20 07:01:11;;;;;;;6.05;2.17;;;;;;;23.70;51.05;98943.63;5010953;28;20042;-66
2021/06/20 07:03:37;;;;;;;4.10;1.98;;;;;;;23.76;51.07;98949.16;5011819;28;20409;-66
2021/06/20 07:06:02;;;;;;;4.22;2.00;;;;;;;23.78;51.48;98939.06;5011820;28;20041;-67
2021/06/20 07:08:28;;;;;;;4.43;1.75;;;;;;;23.68;50.81;98943.00;5012189;28;20037;-67
2021/06/20 07:10:54;;;;;;;5.57;1.90;;;;;;;23.73;51.20;98941.47;5011946;28;20057;-68
2021/06/20 07:13:19;;;;;;;4.03;1.63;;;;;;;23.90;50.19;98949.38;5011980;28;20041;-66
2021/06/20 07:15:45;;;;;;;2.63;1.70;;;;;;;23.90;50.85;98944.84;5011884;28;20121;-66
2021/06/20 07:18:11;;;;;;;3.78;2.22;;;;;;;23.91;50.83;98949.22;5011514;28;20192;-66
2021/06/20 07:20:37;;;;;;;5.88;2.10;;;;;;;23.96;50.19;98946.81;5010396;28;20057;-66
2021/06/20 07:23:02;;;;;;;6.95;1.95;;;;;;;24.06;49.99;98951.94;5011842;28;20034;-67
2021/06/20 07:25:28;;;;;;;3.17;1.80;;;;;;;23.74;51.11;98959.28;5012189;28;20121;-67
2021/06/20 07:27:53;;;;;;;5.43;2.03;;;;;;;23.21;51.70;98952.91;5011115;28;20552;-65
2021/06/20 07:30:20;;;;;;;2.80;1.90;;;;;;;23.66;50.08;98945.88;5010643;28;20136;-67
2021/06/20 07:32:47;;;;;;;4.68;2.10;;;;;;;24.19;48.94;98954.84;5011698;28;20065;-66
2021/06/20 07:35:12;;;;;;;2.95;2.00;;;;;;;24.82;47.66;98965.31;5008537;28;20481;-69
2021/06/20 07:37:38;;;;;;;3.10;2.15;;;;;;;25.25;46.57;98974.38;5009964;28;20029;-67
2021/06/20 07:40:07;;;;;;;6.32;2.30;;;;;;;25.03;46.51;98981.56;5011347;28;20037;-66
2021/06/20 07:42:32;;;;;;;2.15;1.60;;;;;;;25.36;45.35;98988.41;5011195;28;20038;-67
2021/06/20 07:44:58;;;;;;;3.70;2.08;;;;;;;25.52;46.19;98990.00;5011808;28;20042;-67
2021/06/20 07:47:23;;;;;;;2.85;2.05;;;;;;;24.81;45.89;98994.13;5006198;28;20053;-68
2021/06/20 07:49:49;;;;;;;2.92;1.48;;;;;;;24.84;45.63;98985.66;5011261;28;20548;-67
2021/06/20 07:52:14;;;;;;;1.75;1.50;;;;;;;24.73;45.43;98996.91;5011749;28;20037;-66
2021/06/20 07:54:42;;;;;;;5.35;2.08;;;;;;;25.12;44.59;98990.34;5011398;28;20183;-66
2021/06/20 07:57:08;;;;;;;5.22;1.90;;;;;;;25.64;44.10;98983.91;5011379;28;20048;-65
2021/06/20 07:59:34;;;;;;;1.83;1.60;;;;;;;25.89;42.91;98984.41;5012459;28;20038;-66
2021/06/20 08:01:59;;;;;;;4.13;2.47;;;;;;;26.31;42.51;98977.25;5010152;28;20038;-66
2021/06/20 08:04:25;;;;;;;2.25;1.70;;;;;;;26.07;42.68;98975.00;5011895;28;20052;-67
2021/06/20 08:06:51;;;;;;;2.65;1.48;;;;;;;25.70;42.44;98958.84;5011362;28;20398;-67
2021/06/20 08:09:18;;;;;;;4.28;2.00;;;;;;;25.95;42.56;98958.47;5009737;28;20061;-66
2021/06/20 08:11:43;;;;;;;4.18;1.90;;;;;;;26.21;41.67;98965.97;5010989;28;20404;-66
2021/06/20 08:14:09;;;;;;;3.25;1.50;;;;;;;26.20;41.74;98961.56;5010695;28;20112;-66
2021/06/20 08:16:34;;;;;;;3.50;2.00;;;;;;;25.94;42.62;98972.16;5010295;28;20034;-67
2021/06/20 08:19:00;;;;;;;3.65;2.10;;;;;;;25.82;43.21;98972.69;5010603;28;20319;-66
2021/06/20 08:21:25;;;;;;;3.67;1.83;;;;;;;25.66;43.78;98976.47;5012855;28;20037;-57
2021/06/20 08:23:51;;;;;;;4.20;2.08;;;;;;;25.97;43.11;98985.31;5013673;28;20038;-58
2021/06/20 08:26:16;;;;;;;4.22;2.58;;;;;;;26.08;43.09;98982.88;4998021;28;20118;-57
2021/06/20 08:28:42;;;;;;;4.22;2.22;;;;;;;26.11;42.94;98976.25;4990661;28;20027;-61
2021/06/20 08:31:07;;;;;;;4.55;2.10;;;;;;;26.46;41.97;98968.19;4991011;28;20168;-61
2021/06/20 08:33:33;;;;;;;5.47;1.80;;;;;;;26.37;42.35;98980.22;4990976;28;20027;-60
2021/06/20 08:35:59;;;;;;;2.97;2.10;;;;;;;26.17;42.77;98980.88;4992575;28;20050;-56
2021/06/20 08:38:24;;;;;;;3.97;1.95;;;;;;;26.22;41.86;98972.19;4990327;28;20042;-56
2021/06/20 08:40:49;;;;;;;4.50;2.47;;;;;;;26.26;41.92;98966.22;4990872;28;20030;-75
2021/06/20 08:43:15;;;;;;;4.28;1.88;;;;;;;26.17;42.48;98971.97;4986481;28;20420;-75
2021/06/20 08:45:43;;;;;;;2.40;1.90;;;;;;;26.25;42.67;98979.91;4992618;28;20038;-72
2021/06/20 08:48:12;;;;;;;3.20;2.33;;;;;;;26.29;42.48;98963.09;4989456;28;21411;-74
2021/06/20 08:50:37;;;;;;;4.85;2.10;;;;;;;26.51;42.09;98971.16;5001420;28;20045;-75
2021/06/20 08:53:02;;;;;;;3.95;1.95;;;;;;;26.86;41.20;98977.41;5011366;28;20085;-74
2021/06/20 08:55:28;;;;;;;2.88;1.90;;;;;;;26.89;40.87;98970.75;5000041;28;20041;-74
2021/06/20 08:58:00;;;;;;;2.85;2.00;;;;;;;27.13;40.04;98966.69;5009109;28;20041;-73
2021/06/20 09:00:26;;;;;;;5.75;2.08;;;;;;;27.45;39.25;98956.22;5022414;28;20048;-74
2021/06/20 09:02:59;;;;;;;4.80;2.33;;;;;;;28.05;38.15;98960.66;5005887;28;20459;-72
2021/06/20 09:05:25;;;;;;;9.18;1.90;;;;;;;27.84;38.25;98958.16;5011054;28;20045;-74
2021/06/20 09:07:50;;;;;;;2.33;1.92;;;;;;;28.28;37.37;98956.69;5006465;28;20100;-74
2021/06/20 09:10:28;;;;;;;5.18;1.90;;;;;;;27.61;38.67;98945.81;4997874;28;20042;-73
2021/06/20 09:12:56;;;;;;;3.70;1.85;;;;;;;27.29;39.48;98952.00;5002610;28;20067;-75
2021/06/20 09:15:25;;;;;;;4.53;2.00;;;;;;;26.69;40.68;98955.25;5002446;28;20091;-75
2021/06/20 09:17:53;;;;;;;3.92;2.05;;;;;;;27.55;39.77;98959.34;5002633;28;21080;-74
2021/06/20 09:20:30;;;;;;;3.22;2.20;;;;;;;28.50;37.10;98951.88;5003157;28;20553;-73
2021/06/20 09:22:56;;;;;;;4.32;2.03;;;;;;;29.43;35.56;98956.13;5004115;28;20034;-74
2021/06/20 09:25:27;;;;;;;3.25;2.13;;;;;;;29.67;34.98;98960.78;5006034;28;20118;-75
2021/06/20 09:27:55;;;;;;;5.30;2.22;;;;;;;30.06;34.39;98977.84;5006416;28;20030;-74
2021/06/20 09:30:22;;;;;;;2.38;1.60;;;;;;;28.99;35.81;98972.16;5007664;28;20042;-77
2021/06/20 09:33:05;;;;;;;5.30;2.28;;;;;;;28.06;37.62;98966.94;5007378;28;20045;-74
2021/06/20 09:35:45;;;;;;;2.78;1.70;;;;;;;28.62;37.38;98971.03;4987970;28;20038;-74
2021/06/20 09:38:26;;;;;;;3.90;2.35;;;;;;;29.91;35.27;98963.78;4990580;28;20042;-74
2021/06/20 09:41:05;;;;;;;4.07;1.77;;;;;;;29.47;35.73;98968.22;4984136;28;20070;-74
2021/06/20 09:43:32;;;;;;;3.53;2.00;;;;;;;28.69;36.38;98969.97;4984424;28;20038;-75
2021/06/20 09:45:58;;;;;;;3.47;3.08;;;;;;;28.54;36.67;98963.97;4985125;28;20046;-74
2021/06/20 09:48:30;;;;;;;2.38;1.77;;;;;;;28.49;35.54;98971.91;4993340;28;20069;-74
2021/06/20 09:51:11;;;;;;;2.63;2.25;;;;;;;29.09;35.36;98980.75;5003633;28;20030;-75
2021/06/20 09:53:39;;;;;;;2.92;1.90;;;;;;;29.43;34.44;98978.66;4990211;28;21098;-74
2021/06/20 09:56:22;;;;;;;7.38;2.22;;;;;;;30.09;34.00;98971.97;4979403;28;20465;-74
2021/06/20 09:58:55;;;;;;;2.53;1.88;;;;;;;30.69;33.53;98960.56;5002192;28;20041;-75
2021/06/20 10:01:25;;;;;;;4.05;2.00;;;;;;;31.27;30.65;98961.94;5000175;28;20061;-77
2021/06/20 10:03:50;;;;;;;3.80;1.90;;;;;;;30.45;32.81;98961.44;5003034;28;20038;-73
2021/06/20 10:06:17;;;;;;;3.83;1.70;;;;;;;29.92;33.28;98968.13;4995079;28;20053;-76
2021/06/20 10:08:43;;;;;;;2.63;1.80;;;;;;;30.00;33.48;98967.03;5004450;28;20133;-73
2021/06/20 10:11:09;;;;;;;4.78;1.90;;;;;;;29.69;33.45;98958.69;5003736;28;20105;-74
2021/06/20 10:13:35;;;;;;;5.03;1.98;;;;;;;29.33;34.22;98967.44;4999768;28;20057;-75
2021/06/20 10:16:17;;;;;;;3.70;2.00;;;;;;;28.22;36.00;98969.19;4973861;28;20081;-75
2021/06/20 10:18:51;;;;;;;2.78;1.88;;;;;;;27.77;37.14;98979.78;4966429;28;20117;-75
2021/06/20 10:21:31;;;;;;;4.68;2.33;;;;;;;27.35;37.84;98975.56;4961139;28;20034;-76
2021/06/20 10:24:07;;;;;;;4.35;2.70;;;;;;;27.23;38.63;98977.19;4961411;28;20069;-75
2021/06/20 10:26:34;;;;;;;3.17;2.33;;;;;;;27.69;38.05;98976.44;4980403;28;20081;-76
2021/06/20 10:29:02;;;;;;;2.90;2.58;;;;;;;29.02;36.02;98966.34;4986091;28;20568;-76
2021/06/20 10:31:35;;;;;;;6.57;2.47;;;;;;;30.31;33.82;98964.28;4983813;28;20034;-76
2021/06/20 10:34:19;;;;;;;4.78;2.40;;;;;;;30.85;32.23;98958.31;4985848;28;20039;-77
2021/06/20 10:36:46;;;;;;;2.67;1.80;;;;;;;30.47;33.05;98952.00;5009040;28;20061;-77
2021/06/20 10:39:13;;;;;;;3.33;1.90;;;;;;;30.08;33.54;98954.00;5007554;28;20054;-74
2021/06/20 10:41:38;;;;;;;3.78;2.10;;;;;;;29.68;33.77;98938.03;5027309;28;20508;-76
2021/06/20 10:44:04;;;;;;;6.22;2.25;;;;;;;29.39;34.31;98930.44;5035165;28;20044;-74
2021/06/20 10:46:30;;;;;;;3.08;1.80;;;;;;;29.06;35.23;98926.88;5030687;28;20048;-75
2021/06/20 10:48:57;;;;;;;4.93;2.08;;;;;;;28.52;35.90;98913.69;5031465;28;21541;-75
2021/06/20 10:51:23;;;;;;;6.53;2.08;;;;;;;28.17;36.23;98914.78;5014373;28;20037;-76
2021/06/20 10:53:50;;;;;;;5.05;2.40;;;;;;;28.13;37.00;98918.97;5010987;28;20148;-76
2021/06/20 10:56:24;;;;;;;5.07;2.28;;;;;;;28.22;37.09;98903.31;5009587;28;20026;-74
2021/06/20 10:58:51;;;;;;;3.08;1.95;;;;;;;28.05;37.50;98900.22;5009337;28;20416;-72
2021/06/20 11:01:20;;;;;;;3.70;1.77;;;;;;;27.87;36.82;98905.44;5008074;28;20034;-75
2021/06/20 11:03:51;;;;;;;5.60;2.17;;;;;;;27.85;37.11;98892.09;5005776;28;20041;-75
2021/06/20 11:06:21;;;;;;;4.13;2.20;;;;;;;27.80;36.88;98887.28;5007370;28;20044;-74
2021/06/20 11:08:52;;;;;;;5.88;2.00;;;;;;;27.85;36.89;98894.81;5007567;28;20034;-75
2021/06/20 11:11:20;;;;;;;4.85;1.90;;;;;;;27.90;36.85;98881.47;5007139;28;20135;-74
2021/06/20 11:14:02;;;;;;;3.13;1.92;;;;;;;28.02;37.42;98884.38;5006791;28;20042;-75
2021/06/20 11:16:38;;;;;;;2.38;1.65;;;;;;;28.02;36.47;98884.38;5006389;28;20514;-72
2021/06/20 11:19:26;;;;;;;4.97;2.10;;;;;;;28.12;38.30;98870.41;4994247;28;20045;-51
2021/06/20 11:22:06;;;;;;;3.22;1.67;;;;;;;28.20;37.36;98865.56;5006027;28;20548;-50
2021/06/20 11:24:39;;;;;;;7.32;2.10;;;;;;;28.18;37.41;98861.41;4993549;28;20523;-52
2021/06/20 11:27:13;;;;;;;4.10;1.95;;;;;;;27.99;36.66;98868.56;4992949;28;20593;-54
2021/06/20 11:29:45;;;;;;;2.80;1.70;;;;;;;27.72;37.79;98865.00;4970459;28;20532;-51
2021/06/20 11:32:15;;;;;;;4.30;2.20;;;;;;;27.76;37.92;98858.09;5005527;28;20038;-51